createdAt,value
2023-02-11T00:01:26.639Z,24.83
2023-02-11T00:04:28.775Z,24.67
2023-02-11T00:07:32.119Z,25.15
2023-02-11T00:10:34.517Z,23.60
2023-02-11T00:13:36.670Z,23.92
2023-02-11T00:16:39.181Z,23.60
2023-02-11T00:19:41.359Z,24.55
2023-02-11T00:22:43.872Z,24.92
2023-02-11T00:25:46.412Z,23.35
2023-02-11T00:28:50.498Z,22.77
2023-02-11T00:31:52.865Z,22.70
2023-02-11T00:34:55.569Z,24.70
2023-02-11T00:37:57.768Z,25.13
2023-02-11T00:40:59.978Z,22.52
2023-02-11T00:44:03.092Z,23.73
2023-02-11T00:47:05.393Z,23.35
2023-02-11T00:50:08.455Z,24.10
2023-02-11T00:53:11.194Z,23.98
2023-02-11T00:56:14.108Z,24.45
2023-02-11T00:59:16.287Z,21.23
2023-02-11T01:02:38.418Z,22.90
2023-02-11T01:05:59.463Z,21.33
2023-02-11T01:09:01.698Z,21.80
2023-02-11T01:12:04.086Z,23.13
2023-02-11T01:15:09.747Z,22.23
2023-02-11T01:18:30.555Z,23.58
2023-02-11T01:21:51.204Z,21.92
2023-02-11T01:24:57.411Z,20.67
2023-02-11T01:27:59.627Z,22.23
2023-02-11T01:31:03.490Z,21.25
2023-02-11T01:34:08.232Z,19.83
2023-02-11T01:37:12.520Z,21.15
2023-02-11T01:40:17.719Z,21.73
2023-02-11T01:43:20.493Z,21.38
2023-02-11T01:46:33.913Z,20.65
2023-02-11T01:49:42.722Z,20.88
2023-02-11T01:52:47.287Z,18.52
2023-02-11T01:56:11.073Z,20.60
2023-02-11T01:59:36.204Z,18.05
2023-02-11T02:02:49.410Z,19.58
2023-02-11T02:05:54.064Z,19.90
2023-02-11T02:09:03.005Z,20.33
2023-02-11T02:12:05.449Z,20.90
2023-02-11T02:15:23.174Z,18.15
2023-02-11T02:18:31.108Z,20.65
2023-02-11T02:21:51.847Z,20.23
2023-02-11T02:25:18.400Z,20.70
2023-02-11T02:28:49.560Z,21.40
2023-02-11T02:32:29.447Z,20.75
2023-02-11T02:35:54.782Z,20.02
2023-02-11T02:39:08.077Z,20.13
2023-02-11T02:42:11.079Z,20.83
2023-02-11T02:45:14.693Z,20.77
2023-02-11T02:48:29.851Z,18.67
2023-02-11T02:51:56.409Z,21.35
2023-02-11T02:55:19.900Z,20.52
2023-02-11T02:58:40.533Z,20.95
2023-02-11T03:02:13.127Z,21.33
2023-02-11T03:05:50.854Z,20.92
2023-02-11T03:09:16.450Z,20.90
2023-02-11T03:12:20.507Z,20.10
2023-02-11T03:15:24.718Z,21.17
2023-02-11T03:18:29.504Z,21.63
2023-02-11T03:21:33.941Z,21.50
2023-02-11T03:24:39.779Z,21.48
2023-02-11T03:27:47.842Z,21.58
2023-02-11T03:30:57.674Z,20.00
2023-02-11T03:34:36.250Z,20.33
2023-02-11T03:37:54.589Z,20.23
2023-02-11T03:40:57.903Z,20.02
2023-02-11T03:44:01.569Z,21.83
2023-02-11T03:47:07.519Z,22.35
2023-02-11T03:50:12.781Z,21.67
2023-02-11T03:53:16.125Z,22.58
2023-02-11T03:56:22.261Z,22.90
2023-02-11T03:59:24.608Z,21.95
2023-02-11T04:02:37.186Z,21.85
2023-02-11T04:05:39.595Z,22.45
2023-02-11T04:08:41.733Z,22.10
2023-02-11T04:11:43.968Z,23.02
2023-02-11T04:14:46.352Z,20.92
2023-02-11T04:17:48.808Z,20.05
2023-02-11T04:20:50.970Z,20.45
2023-02-11T04:23:53.247Z,20.80
2023-02-11T04:26:55.665Z,20.27
2023-02-11T04:29:57.879Z,22.42
2023-02-11T04:33:00.122Z,21.88
2023-02-11T04:36:02.335Z,21.98
2023-02-11T04:39:05.146Z,20.63
2023-02-11T04:42:07.707Z,20.40
2023-02-11T04:45:10.050Z,19.90
2023-02-11T04:48:12.212Z,20.92
2023-02-11T04:51:14.485Z,22.05
2023-02-11T04:54:17.424Z,22.40
2023-02-11T04:57:19.546Z,21.83
2023-02-11T05:00:21.787Z,21.40
2023-02-11T05:03:23.909Z,21.52
2023-02-11T05:06:26.353Z,21.27
2023-02-11T05:09:28.667Z,21.20
2023-02-11T05:12:31.016Z,21.17
2023-02-11T05:15:33.315Z,20.85
2023-02-11T05:18:38.589Z,21.35
2023-02-11T05:21:53.175Z,22.50
2023-02-11T05:25:02.700Z,21.08
2023-02-11T05:28:05.755Z,20.67
2023-02-11T05:31:08.731Z,22.55
2023-02-11T05:34:10.984Z,20.40
2023-02-11T05:37:13.359Z,22.90
2023-02-11T05:40:15.840Z,22.92
2023-02-11T05:43:18.025Z,20.90
2023-02-11T05:46:20.351Z,20.90
2023-02-11T05:49:22.555Z,21.90
2023-02-11T05:52:24.996Z,21.70
2023-02-11T05:55:27.304Z,22.23
2023-02-11T05:58:29.738Z,22.77
2023-02-11T06:01:31.985Z,22.95
2023-02-11T06:04:34.902Z,24.33
2023-02-11T06:07:36.988Z,22.70
2023-02-11T06:10:39.414Z,24.27
2023-02-11T06:13:41.506Z,23.13
2023-02-11T06:16:43.811Z,22.50
2023-02-11T06:19:46.020Z,23.98
2023-02-11T06:22:48.209Z,24.35
2023-02-11T06:25:51.496Z,22.90
2023-02-11T06:28:54.062Z,23.15
2023-02-11T06:31:56.396Z,23.25
2023-02-11T06:34:58.722Z,23.52
2023-02-11T06:38:01.349Z,23.60
2023-02-11T06:41:03.685Z,24.00
2023-02-11T06:44:06.194Z,24.25
2023-02-11T06:47:08.510Z,23.65
2023-02-11T06:50:14.224Z,22.98
2023-02-11T06:53:16.430Z,23.17
2023-02-11T06:56:21.260Z,22.58
2023-02-11T06:59:23.388Z,23.70
2023-02-11T07:02:25.711Z,24.77
2023-02-11T07:05:28.005Z,25.75
2023-02-11T07:08:30.281Z,23.90
2023-02-11T07:11:32.695Z,22.45
2023-02-11T07:14:34.963Z,22.65
2023-02-11T07:17:37.136Z,22.73
2023-02-11T07:20:39.323Z,22.38
2023-02-11T07:23:41.894Z,24.58
2023-02-11T07:26:44.976Z,26.10
2023-02-11T07:29:48.724Z,25.65
2023-02-11T07:32:50.941Z,24.48
2023-02-11T07:35:53.178Z,26.70
2023-02-11T07:38:55.477Z,25.08
2023-02-11T07:41:57.794Z,25.35
2023-02-11T07:45:00.271Z,26.40
2023-02-11T07:48:02.539Z,26.98
2023-02-11T07:51:26.521Z,27.30
2023-02-11T07:54:28.791Z,26.60
2023-02-11T07:57:30.965Z,26.75
2023-02-11T08:00:33.127Z,27.80
2023-02-11T08:03:36.556Z,24.75
2023-02-11T08:06:42.797Z,26.70
2023-02-11T08:09:45.149Z,27.17
2023-02-11T08:12:47.579Z,27.95
2023-02-11T08:15:50.158Z,25.75
2023-02-11T08:18:53.871Z,24.90
2023-02-11T08:21:57.269Z,26.75
2023-02-11T08:24:59.617Z,26.08
2023-02-11T08:28:01.882Z,27.33
2023-02-11T08:31:08.794Z,26.45
2023-02-11T08:34:14.279Z,26.02
2023-02-11T08:37:16.528Z,25.67
2023-02-11T08:40:18.983Z,26.77
2023-02-11T08:43:21.105Z,25.27
2023-02-11T08:46:23.335Z,25.25
2023-02-11T08:49:25.557Z,25.90
2023-02-11T08:52:27.867Z,27.98
2023-02-11T08:55:30.131Z,25.95
2023-02-11T08:58:33.248Z,24.10
2023-02-11T09:01:36.631Z,24.60
2023-02-11T09:04:38.969Z,26.33
2023-02-11T09:07:41.282Z,26.33
2023-02-11T09:10:43.488Z,25.20
2023-02-11T09:13:46.378Z,23.75
2023-02-11T09:16:49.303Z,24.42
2023-02-11T09:19:51.728Z,24.67
2023-02-11T09:22:55.178Z,24.58
2023-02-11T09:25:57.490Z,23.90
2023-02-11T09:29:00.865Z,25.70
2023-02-11T09:32:03.195Z,23.63
2023-02-11T09:35:05.816Z,26.92
2023-02-11T09:38:08.090Z,25.17
2023-02-11T09:41:47.146Z,24.55
2023-02-11T09:44:49.902Z,24.98
2023-02-11T09:48:06.162Z,25.70
2023-02-11T09:51:24.699Z,26.42
2023-02-11T09:54:44.949Z,24.60
2023-02-11T09:57:47.358Z,22.15
2023-02-11T10:01:08.451Z,23.92
2023-02-11T10:04:49.244Z,23.73
2023-02-11T10:08:32.013Z,24.73
2023-02-11T10:11:40.424Z,24.17
2023-02-11T10:14:45.330Z,22.90
2023-02-11T10:17:59.388Z,24.05
2023-02-11T10:21:07.315Z,23.13
2023-02-11T10:24:13.103Z,24.60
2023-02-11T10:27:19.912Z,22.58
2023-02-11T10:30:35.029Z,22.27
2023-02-11T10:34:09.904Z,24.15
2023-02-11T10:37:14.810Z,24.30
2023-02-11T10:40:26.736Z,22.48
2023-02-11T10:43:32.297Z,22.55
2023-02-11T10:46:40.307Z,23.55
2023-02-11T10:49:45.499Z,22.38
2023-02-11T10:52:47.675Z,21.30
2023-02-11T10:55:52.461Z,20.80
2023-02-11T10:59:33.253Z,21.38
2023-02-11T11:02:38.899Z,21.95
2023-02-11T11:05:57.390Z,20.50
2023-02-11T11:09:01.250Z,21.75
2023-02-11T11:12:03.498Z,20.98
2023-02-11T11:15:11.778Z,22.35
2023-02-11T11:18:22.527Z,23.13
2023-02-11T11:21:30.740Z,20.65
2023-02-11T11:24:39.979Z,23.35
2023-02-11T11:27:48.171Z,21.02
2023-02-11T11:30:52.239Z,22.88
2023-02-11T11:33:58.136Z,23.42
2023-02-11T11:37:09.949Z,21.75
2023-02-11T11:40:23.215Z,22.45
2023-02-11T11:43:25.628Z,23.35
2023-02-11T11:46:41.439Z,22.92
2023-02-11T11:50:16.076Z,23.00
2023-02-11T11:53:36.388Z,22.77
2023-02-11T11:59:46.116Z,20.90
2023-02-11T12:03:02.957Z,22.17
2023-02-11T12:06:39.702Z,21.35
2023-02-11T12:09:41.829Z,20.02
2023-02-11T12:13:01.422Z,20.58
2023-02-11T12:16:20.041Z,19.10
2023-02-11T12:19:34.894Z,19.67
2023-02-11T12:23:01.360Z,21.48
2023-02-11T12:26:17.891Z,18.85
2023-02-11T12:29:42.030Z,21.05
2023-02-11T12:32:59.516Z,21.08
2023-02-11T12:36:22.850Z,19.80
2023-02-11T12:39:46.987Z,19.83
2023-02-11T12:43:16.023Z,20.40
2023-02-11T12:46:49.442Z,20.10
2023-02-11T12:50:06.674Z,19.98
2023-02-11T12:53:29.793Z,20.23
2023-02-11T12:56:36.503Z,18.52
2023-02-11T12:59:50.075Z,19.85
2023-02-11T13:03:13.580Z,17.25
2023-02-11T13:06:21.336Z,17.30
2023-02-11T13:09:30.831Z,20.02
2023-02-11T13:12:52.412Z,19.07
2023-02-11T13:16:07.504Z,18.38
2023-02-11T13:19:34.627Z,19.45
2023-02-11T13:22:48.967Z,19.60
2023-02-11T13:25:54.178Z,19.58
2023-02-11T13:29:26.683Z,18.50
2023-02-11T13:32:50.080Z,18.92
2023-02-11T13:35:58.135Z,18.60
2023-02-11T13:39:04.674Z,20.58
2023-02-11T13:42:06.937Z,20.20
2023-02-11T13:45:37.685Z,19.02
2023-02-11T13:48:53.085Z,17.75
2023-02-11T13:51:56.466Z,18.48
2023-02-11T13:55:07.272Z,19.00
2023-02-11T13:58:09.463Z,17.40
2023-02-11T14:01:11.721Z,19.83
2023-02-11T14:04:41.687Z,17.15
2023-02-11T14:08:28.518Z,20.17
2023-02-11T14:11:33.732Z,19.92
2023-02-11T14:15:22.095Z,19.13
2023-02-11T14:18:59.892Z,19.52
2023-02-11T14:22:31.909Z,18.63
2023-02-11T14:25:34.306Z,17.55
2023-02-11T14:28:37.528Z,18.42
2023-02-11T14:32:18.281Z,19.42
2023-02-11T14:35:45.169Z,18.55
2023-02-11T14:39:13.454Z,20.55
2023-02-11T14:42:26.680Z,18.35
2023-02-11T14:45:31.165Z,19.48
2023-02-11T14:48:38.409Z,19.92
2023-02-11T14:51:41.433Z,19.50
2023-02-11T14:54:45.329Z,19.00
2023-02-11T14:57:49.734Z,18.10
2023-02-11T15:01:28.874Z,17.40
2023-02-11T15:04:33.512Z,18.25
2023-02-11T15:07:35.638Z,18.10
2023-02-11T15:10:44.996Z,18.08
2023-02-11T15:13:49.800Z,17.47
2023-02-11T15:16:54.918Z,16.98
2023-02-11T15:20:00.498Z,17.63
2023-02-11T15:23:07.518Z,18.08
2023-02-11T15:26:14.547Z,18.00
2023-02-11T15:29:17.448Z,19.17
2023-02-11T15:32:25.789Z,17.70
2023-02-11T15:35:38.219Z,18.90
2023-02-11T15:38:41.129Z,18.58
2023-02-11T15:41:44.486Z,18.50
2023-02-11T15:44:52.318Z,18.25
2023-02-11T15:48:17.541Z,17.83
2023-02-11T15:51:28.761Z,17.60
2023-02-11T15:54:32.681Z,17.73
2023-02-11T15:57:34.965Z,16.52
2023-02-11T16:00:48.019Z,17.92
2023-02-11T16:03:50.969Z,16.40
2023-02-11T16:06:54.830Z,15.93
2023-02-11T16:09:58.694Z,17.05
2023-02-11T16:13:07.146Z,17.13
2023-02-11T16:16:21.351Z,17.45
2023-02-11T16:19:25.730Z,17.55
2023-02-11T16:22:30.607Z,16.45
2023-02-11T16:25:35.459Z,16.25
2023-02-11T16:28:38.248Z,17.20
2023-02-11T16:31:43.596Z,16.92
2023-02-11T16:34:46.617Z,15.18
2023-02-11T16:37:48.761Z,17.10
2023-02-11T16:40:51.633Z,16.58
2023-02-11T16:43:57.884Z,17.48
2023-02-11T16:47:03.312Z,16.60
2023-02-11T16:50:10.628Z,16.98
2023-02-11T16:53:16.222Z,14.55
2023-02-11T16:56:18.914Z,16.38
2023-02-11T16:59:21.627Z,15.55
2023-02-11T17:02:30.491Z,16.50
2023-02-11T17:05:42.723Z,16.77
2023-02-11T17:08:51.590Z,16.83
2023-02-11T17:11:54.188Z,16.10
2023-02-11T17:14:56.572Z,17.23
2023-02-11T17:17:59.114Z,16.80
2023-02-11T17:21:01.534Z,17.65
2023-02-11T17:24:03.795Z,17.40
2023-02-11T17:27:05.983Z,16.77
2023-02-11T17:30:08.993Z,17.55
2023-02-11T17:33:11.152Z,18.48
2023-02-11T17:36:13.347Z,17.27
2023-02-11T17:39:16.478Z,18.08
2023-02-11T17:42:21.450Z,18.08
2023-02-11T17:45:23.654Z,18.08
2023-02-11T17:48:25.966Z,17.50
2023-02-11T17:51:29.631Z,19.05
2023-02-11T17:54:31.901Z,18.55
2023-02-11T17:57:34.523Z,19.30
2023-02-11T18:00:36.886Z,17.20
2023-02-11T18:03:39.007Z,19.80
2023-02-11T18:06:41.215Z,17.98
2023-02-11T18:09:43.500Z,17.88
2023-02-11T18:12:45.671Z,19.63
2023-02-11T18:15:47.876Z,18.25
2023-02-11T18:18:50.652Z,20.23
2023-02-11T18:21:53.017Z,19.92
2023-02-11T18:24:55.462Z,18.83
2023-02-11T18:27:57.848Z,20.45
2023-02-11T18:31:00.663Z,21.88
2023-02-11T18:34:05.688Z,19.63
2023-02-11T18:37:07.867Z,21.35
2023-02-11T18:40:11.185Z,21.05
2023-02-11T18:43:20.687Z,20.65
2023-02-11T18:46:22.967Z,21.67
2023-02-11T18:49:25.549Z,21.65
2023-02-11T18:52:27.727Z,20.85
2023-02-11T18:55:29.986Z,19.73
2023-02-11T18:58:32.182Z,21.88
2023-02-11T19:01:34.637Z,23.02
2023-02-11T19:04:37.563Z,25.70
2023-02-11T19:07:39.878Z,21.45
2023-02-11T19:10:43.550Z,22.83
2023-02-11T19:13:48.000Z,22.83
2023-02-11T19:16:52.923Z,22.27
2023-02-11T19:19:55.141Z,22.70
2023-02-11T19:22:57.812Z,22.25
2023-02-11T19:26:00.021Z,22.55
2023-02-11T19:29:02.509Z,23.23
2023-02-11T19:32:08.595Z,24.00
2023-02-11T19:35:10.865Z,21.83
2023-02-11T19:38:14.100Z,22.50
2023-02-11T19:41:16.511Z,22.42
2023-02-11T19:44:19.201Z,22.85
2023-02-11T19:47:27.816Z,22.42
2023-02-11T19:50:30.349Z,22.17
2023-02-11T19:53:32.520Z,20.42
2023-02-11T19:56:34.908Z,21.10
2023-02-11T19:59:37.159Z,23.48
2023-02-11T20:02:40.510Z,21.27
2023-02-11T20:05:47.216Z,23.50
2023-02-11T20:08:56.457Z,21.52
2023-02-11T20:12:00.140Z,24.45
2023-02-11T20:15:02.361Z,23.42
2023-02-11T20:18:04.543Z,19.13
2023-02-11T20:21:08.462Z,22.17
2023-02-11T20:24:10.668Z,22.77
2023-02-11T20:27:13.246Z,23.52
2023-02-11T20:30:16.086Z,21.70
2023-02-11T20:33:18.221Z,22.90
2023-02-11T20:36:25.640Z,25.17
2023-02-11T20:39:28.028Z,24.42
2023-02-11T20:42:30.526Z,24.58
2023-02-11T20:45:35.524Z,22.67
2023-02-11T20:48:37.826Z,24.00
2023-02-11T20:51:41.113Z,24.38
2023-02-11T20:54:43.271Z,24.77
2023-02-11T20:57:45.502Z,22.13
2023-02-11T21:00:47.700Z,22.13
2023-02-11T21:03:59.301Z,24.33
2023-02-11T21:07:02.137Z,23.65
2023-02-11T21:10:04.734Z,23.35
2023-02-11T21:13:07.122Z,24.33
2023-02-11T21:16:14.466Z,25.60
2023-02-11T21:19:19.021Z,24.02
2023-02-11T21:22:22.465Z,22.75
2023-02-11T21:25:24.794Z,24.15
2023-02-11T21:28:27.191Z,24.08
2023-02-11T21:31:31.400Z,24.88
2023-02-11T21:34:33.955Z,24.33
2023-02-11T21:37:36.218Z,25.08
2023-02-11T21:40:38.577Z,24.92
2023-02-11T21:43:41.091Z,24.15
2023-02-11T21:46:47.429Z,23.98
2023-02-11T21:49:50.045Z,22.73
2023-02-11T21:52:52.396Z,24.48
2023-02-11T21:56:06.967Z,24.40
2023-02-11T21:59:14.027Z,24.15
2023-02-11T22:02:16.274Z,23.50
2023-02-11T22:05:18.682Z,24.50
2023-02-11T22:08:20.956Z,23.75
2023-02-11T22:11:24.005Z,25.10
2023-02-11T22:14:26.265Z,23.02
2023-02-11T22:17:28.571Z,26.10
2023-02-11T22:20:30.832Z,24.90
2023-02-11T22:23:33.191Z,24.60
2023-02-11T22:26:35.485Z,23.45
2023-02-11T22:29:37.693Z,24.40
2023-02-11T22:32:40.110Z,25.38
2023-02-11T22:35:42.417Z,26.30
2023-02-11T22:38:44.912Z,24.67
2023-02-11T22:41:47.886Z,23.42
2023-02-11T22:44:50.172Z,25.88
2023-02-11T22:47:54.278Z,26.08
2023-02-11T22:50:56.731Z,23.95
2023-02-11T22:54:04.063Z,25.38
2023-02-11T22:57:06.214Z,24.30
2023-02-11T23:00:10.014Z,23.92
2023-02-11T23:03:12.981Z,25.55
2023-02-11T23:06:15.539Z,26.10
2023-02-11T23:09:17.810Z,26.48
2023-02-11T23:12:20.100Z,24.88
2023-02-11T23:15:22.250Z,25.75
2023-02-11T23:18:24.450Z,25.80
2023-02-11T23:21:29.939Z,24.35
2023-02-11T23:24:32.180Z,24.85
2023-02-11T23:27:34.471Z,24.80
2023-02-11T23:30:36.829Z,25.95
2023-02-11T23:33:38.947Z,24.17
2023-02-11T23:36:41.188Z,26.52
2023-02-11T23:39:43.356Z,25.42
2023-02-11T23:42:46.077Z,23.83
2023-02-11T23:45:48.290Z,24.27
2023-02-11T23:48:51.259Z,25.85
2023-02-11T23:51:53.633Z,24.73
2023-02-11T23:54:55.792Z,25.92
2023-02-11T23:57:57.893Z,26.65
